createdAt,value
2019-05-07T00:02:02.905Z,10.93
2019-05-07T00:04:33.272Z,11.03
2019-05-07T00:07:03.121Z,10.20
2019-05-07T00:09:32.677Z,10.93
2019-05-07T00:12:05.077Z,12.80
2019-05-07T00:14:34.511Z,12.93
2019-05-07T00:17:04.900Z,13.43
2019-05-07T00:19:34.451Z,12.13
2019-05-07T00:22:04.084Z,12.67
2019-05-07T00:24:34.433Z,10.57
2019-05-07T00:27:06.698Z,10.53
2019-05-07T00:29:36.248Z,11.57
2019-05-07T00:32:06.234Z,12.23
2019-05-07T00:34:37.407Z,11.50
2019-05-07T00:37:13.108Z,10.83
2019-05-07T00:40:02.880Z,10.83
2019-05-07T00:42:37.000Z,10.60
2019-05-07T00:45:19.642Z,10.63
2019-05-07T00:47:42.596Z,10.93
2019-05-07T00:50:13.897Z,11.70
2019-05-07T00:52:43.648Z,10.60
2019-05-07T00:55:13.277Z,10.27
2019-05-07T00:57:42.998Z,10.53
2019-05-07T01:00:13.563Z,11.00
2019-05-07T01:02:43.243Z,11.37
2019-05-07T01:05:12.880Z,10.60
2019-05-07T01:07:42.592Z,11.47
2019-05-07T01:10:12.811Z,11.97
2019-05-07T01:12:42.471Z,10.37
2019-05-07T01:15:27.138Z,10.90
2019-05-07T01:17:45.208Z,11.50
2019-05-07T01:20:15.387Z,11.30
2019-05-07T01:22:45.055Z,11.90
2019-05-07T01:25:14.908Z,11.20
2019-05-07T01:27:44.563Z,11.87
2019-05-07T01:30:14.934Z,11.97
2019-05-07T01:32:49.618Z,12.27
2019-05-07T01:35:32.695Z,11.27
2019-05-07T01:38:03.103Z,11.93
2019-05-07T01:40:32.871Z,11.37
2019-05-07T01:43:02.643Z,12.23
2019-05-07T01:45:45.826Z,12.00
2019-05-07T01:48:04.481Z,11.93
2019-05-07T01:50:34.334Z,11.50
2019-05-07T01:53:05.000Z,12.17
2019-05-07T01:55:35.150Z,11.00
2019-05-07T01:58:05.113Z,11.37
2019-05-07T02:00:36.203Z,12.13
2019-05-07T02:03:25.501Z,11.83
2019-05-07T02:05:57.375Z,12.07
2019-05-07T02:08:43.368Z,11.57
2019-05-07T02:11:15.152Z,11.27
2019-05-07T02:13:44.712Z,11.63
2019-05-07T02:16:14.260Z,11.47
2019-05-07T02:18:43.960Z,12.23
2019-05-07T02:21:13.512Z,12.27
2019-05-07T02:23:43.157Z,11.73
2019-05-07T02:26:13.420Z,11.53
2019-05-07T02:28:43.829Z,13.17
2019-05-07T02:31:15.056Z,12.67
2019-05-07T02:33:44.623Z,12.30
2019-05-07T02:36:14.581Z,12.20
2019-05-07T02:38:49.398Z,11.73
2019-05-07T02:41:26.449Z,12.83
2019-05-07T02:43:59.887Z,12.23
2019-05-07T02:46:45.639Z,12.37
2019-05-07T02:49:16.828Z,13.50
2019-05-07T02:51:53.510Z,13.00
2019-05-07T02:54:27.142Z,11.73
2019-05-07T02:56:57.237Z,12.03
2019-05-07T02:59:27.005Z,12.90
2019-05-07T03:01:56.623Z,12.83
2019-05-07T03:04:29.082Z,12.67
2019-05-07T03:06:59.188Z,13.17
2019-05-07T03:09:28.812Z,12.80
2019-05-07T03:12:00.036Z,12.93
2019-05-07T03:14:32.272Z,11.90
2019-05-07T03:17:02.978Z,13.17
2019-05-07T03:19:34.398Z,13.00
2019-05-07T03:22:04.106Z,13.87
2019-05-07T03:24:38.455Z,14.00
2019-05-07T03:27:08.534Z,13.63
2019-05-07T03:29:39.722Z,13.63
2019-05-07T03:32:28.170Z,13.70
2019-05-07T03:35:16.889Z,13.53
2019-05-07T03:37:46.876Z,13.67
2019-05-07T03:40:17.020Z,14.67
2019-05-07T03:42:46.566Z,13.60
2019-05-07T03:45:18.072Z,14.10
2019-05-07T03:48:05.299Z,14.30
2019-05-07T03:50:34.948Z,14.30
2019-05-07T03:53:07.220Z,15.83
2019-05-07T03:55:38.303Z,15.50
2019-05-07T03:58:08.329Z,14.77
2019-05-07T04:00:37.876Z,14.67
2019-05-07T04:03:07.429Z,15.00
2019-05-07T04:05:37.860Z,15.00
2019-05-07T04:08:07.481Z,14.67
2019-05-07T04:10:37.035Z,14.47
2019-05-07T04:13:06.680Z,15.47
2019-05-07T04:15:36.235Z,16.10
2019-05-07T04:18:05.969Z,15.50
2019-05-07T04:20:35.522Z,14.97
2019-05-07T04:23:05.412Z,15.63
2019-05-07T04:25:36.590Z,15.13
2019-05-07T04:28:19.449Z,15.73
2019-05-07T04:30:48.993Z,15.13
2019-05-07T04:33:20.175Z,14.43
2019-05-07T04:36:02.939Z,15.20
2019-05-07T04:38:33.329Z,15.47
2019-05-07T04:41:03.790Z,15.43
2019-05-07T04:43:33.927Z,16.27
2019-05-07T04:46:03.606Z,15.37
2019-05-07T04:48:34.151Z,14.77
2019-05-07T04:51:05.551Z,15.10
2019-05-07T04:53:35.190Z,14.80
2019-05-07T04:56:04.741Z,14.80
2019-05-07T04:58:34.860Z,14.63
2019-05-07T05:01:05.981Z,15.03
2019-05-07T05:03:39.183Z,14.50
2019-05-07T05:06:07.427Z,15.70
2019-05-07T05:08:36.972Z,16.40
2019-05-07T05:11:06.653Z,15.73
2019-05-07T05:13:36.201Z,15.60
2019-05-07T05:16:25.232Z,16.80
2019-05-07T05:18:56.575Z,16.67
2019-05-07T05:21:44.413Z,15.50
2019-05-07T05:24:15.592Z,14.10
2019-05-07T05:26:45.247Z,14.77
2019-05-07T05:29:15.366Z,15.30
2019-05-07T05:31:44.912Z,14.40
2019-05-07T05:34:16.242Z,15.47
2019-05-07T05:36:46.201Z,15.43
2019-05-07T05:39:15.741Z,15.67
2019-05-07T05:41:46.943Z,15.17
2019-05-07T05:44:33.989Z,15.03
2019-05-07T05:47:03.520Z,15.63
2019-05-07T05:49:33.192Z,14.63
2019-05-07T05:52:12.391Z,15.07
2019-05-07T05:54:43.333Z,14.63
2019-05-07T05:57:14.519Z,15.13
2019-05-07T06:00:02.336Z,15.47
2019-05-07T06:02:32.457Z,14.23
2019-05-07T06:05:22.002Z,14.13
2019-05-07T06:08:04.679Z,14.80
2019-05-07T06:10:38.624Z,15.13
2019-05-07T06:13:09.892Z,14.90
2019-05-07T06:16:00.117Z,15.03
2019-05-07T06:18:38.266Z,14.90
2019-05-07T06:21:09.497Z,14.43
2019-05-07T06:23:42.021Z,14.97
2019-05-07T06:26:12.674Z,14.60
2019-05-07T06:28:42.637Z,14.90
2019-05-07T06:31:12.827Z,14.67
2019-05-07T06:33:43.396Z,14.13
2019-05-07T06:36:12.951Z,14.07
2019-05-07T06:38:44.287Z,14.33
2019-05-07T06:41:22.684Z,14.00
2019-05-07T06:44:02.046Z,13.67
2019-05-07T06:46:32.329Z,13.50
2019-05-07T06:49:02.818Z,14.07
2019-05-07T06:51:32.974Z,13.93
2019-05-07T06:54:02.953Z,14.37
2019-05-07T06:56:32.717Z,13.70
2019-05-07T06:59:04.665Z,12.53
2019-05-07T07:01:38.551Z,13.63
2019-05-07T07:04:09.821Z,11.47
2019-05-07T07:06:48.302Z,13.07
2019-05-07T07:09:32.982Z,12.37
2019-05-07T07:12:04.241Z,12.53
2019-05-07T07:14:33.793Z,12.23
2019-05-07T07:17:04.618Z,12.13
2019-05-07T07:19:36.079Z,13.23
2019-05-07T07:22:05.700Z,11.10
2019-05-07T07:24:35.266Z,10.33
2019-05-07T07:27:04.997Z,11.13
2019-05-07T07:29:36.312Z,10.40
2019-05-07T07:32:07.708Z,7.87
2019-05-07T07:34:38.896Z,7.77
2019-05-07T07:37:19.514Z,7.27
2019-05-07T07:39:49.139Z,8.00
2019-05-07T07:42:18.709Z,9.57
2019-05-07T07:44:51.811Z,9.37
2019-05-07T07:47:22.314Z,10.67
2019-05-07T07:49:52.594Z,8.13
2019-05-07T07:52:23.098Z,7.40
2019-05-07T07:54:53.064Z,8.13
2019-05-07T07:57:40.234Z,7.40
2019-05-07T08:00:11.982Z,8.33
2019-05-07T08:02:43.645Z,9.00
2019-05-07T08:05:13.900Z,8.17
2019-05-07T08:07:43.478Z,8.53
2019-05-07T08:10:13.790Z,7.73
2019-05-07T08:12:43.407Z,6.60
2019-05-07T08:15:20.371Z,7.47
2019-05-07T08:17:45.432Z,5.60
2019-05-07T08:20:16.297Z,5.43
2019-05-07T08:22:45.846Z,5.57
2019-05-07T08:25:15.850Z,5.60
2019-05-07T08:27:45.397Z,6.60
2019-05-07T08:30:18.796Z,7.07
2019-05-07T08:32:49.968Z,6.80
2019-05-07T08:35:37.729Z,5.40
2019-05-07T08:38:07.291Z,5.40
2019-05-07T08:40:37.311Z,4.60
2019-05-07T08:43:07.526Z,5.47
2019-05-07T08:45:57.012Z,5.93
2019-05-07T08:48:28.457Z,6.03
2019-05-07T08:50:58.018Z,6.70
2019-05-07T08:53:27.573Z,6.20
2019-05-07T08:55:58.073Z,6.93
2019-05-07T08:58:27.636Z,5.90
2019-05-07T09:00:57.346Z,5.57
2019-05-07T09:03:45.099Z,5.07
2019-05-07T09:06:17.472Z,5.20
2019-05-07T09:08:47.223Z,5.03
2019-05-07T09:11:16.887Z,5.83
2019-05-07T09:13:46.662Z,7.07
2019-05-07T09:16:16.217Z,5.60
2019-05-07T09:18:45.901Z,5.77
2019-05-07T09:21:15.782Z,5.77
2019-05-07T09:23:45.341Z,5.60
2019-05-07T09:26:16.556Z,5.40
2019-05-07T09:28:52.374Z,5.50
2019-05-07T09:31:23.748Z,4.90
2019-05-07T09:33:54.683Z,5.13
2019-05-07T09:36:26.009Z,6.33
2019-05-07T09:38:58.983Z,5.70
2019-05-07T09:41:26.836Z,5.50
2019-05-07T09:43:58.625Z,6.17
2019-05-07T09:46:28.532Z,6.37
2019-05-07T09:48:58.421Z,6.87
2019-05-07T09:51:27.987Z,6.17
2019-05-07T09:53:57.534Z,6.40
2019-05-07T09:56:27.939Z,5.70
2019-05-07T09:58:57.863Z,6.53
2019-05-07T10:01:27.528Z,6.23
2019-05-07T10:03:57.146Z,7.23
2019-05-07T10:06:26.702Z,7.60
2019-05-07T10:08:56.452Z,7.37
2019-05-07T10:11:27.645Z,8.20
2019-05-07T10:14:02.065Z,7.50
2019-05-07T10:16:33.274Z,7.17
2019-05-07T10:19:03.045Z,6.73
2019-05-07T10:21:32.690Z,6.43
2019-05-07T10:24:03.339Z,7.30
2019-05-07T10:26:32.948Z,6.90
2019-05-07T10:29:02.753Z,6.83
2019-05-07T10:31:33.352Z,6.87
2019-05-07T10:34:03.108Z,6.87
2019-05-07T10:36:32.767Z,6.33
2019-05-07T10:39:02.630Z,6.57
2019-05-07T10:41:32.191Z,6.57
2019-05-07T10:44:02.570Z,9.53
2019-05-07T10:46:43.683Z,12.30
2019-05-07T10:49:22.605Z,6.67
2019-05-07T10:51:52.452Z,6.63
2019-05-07T10:54:22.103Z,6.20
2019-05-07T10:56:52.449Z,6.00
2019-05-07T10:59:22.577Z,6.27
2019-05-07T11:02:05.690Z,6.77
2019-05-07T11:04:42.576Z,6.30
2019-05-07T11:07:06.591Z,6.80
2019-05-07T11:09:36.986Z,6.60
2019-05-07T11:12:07.039Z,5.83
2019-05-07T11:14:36.589Z,5.77
2019-05-07T11:17:08.175Z,5.87
2019-05-07T11:19:37.735Z,5.80
2019-05-07T11:22:07.378Z,5.57
2019-05-07T11:24:36.936Z,5.23
2019-05-07T11:27:06.800Z,5.17
2019-05-07T11:29:36.729Z,5.10
2019-05-07T11:32:07.433Z,5.17
2019-05-07T11:34:37.477Z,5.33
2019-05-07T11:37:07.133Z,5.13
2019-05-07T11:39:36.697Z,6.23
2019-05-07T11:42:22.112Z,6.07
2019-05-07T11:44:55.016Z,6.63
2019-05-07T11:47:36.354Z,6.20
2019-05-07T11:50:14.643Z,5.80
2019-05-07T11:53:00.890Z,10.37
2019-05-07T11:55:30.445Z,7.57
2019-05-07T11:58:02.263Z,6.20
2019-05-07T12:00:33.086Z,6.17
2019-05-07T12:03:03.134Z,8.00
2019-05-07T12:05:33.311Z,8.43
2019-05-07T12:08:03.131Z,7.90
2019-05-07T12:10:33.064Z,7.23
2019-05-07T12:13:02.796Z,7.20
2019-05-07T12:15:32.668Z,8.13
2019-05-07T12:18:03.290Z,7.78
2019-05-07T12:20:32.910Z,7.93
2019-05-07T12:23:03.666Z,8.13
2019-05-07T12:25:33.284Z,8.10
2019-05-07T12:28:03.055Z,9.27
2019-05-07T12:30:37.012Z,9.30
2019-05-07T12:33:21.535Z,8.77
2019-05-07T12:35:52.463Z,8.60
2019-05-07T12:38:22.797Z,8.90
2019-05-07T12:40:52.708Z,8.83
2019-05-07T12:43:22.365Z,9.10
2019-05-07T12:45:52.469Z,9.13
2019-05-07T12:48:22.602Z,9.00
2019-05-07T12:50:52.610Z,8.77
2019-05-07T12:53:23.776Z,9.10
2019-05-07T12:55:54.984Z,11.90
2019-05-07T12:58:24.767Z,7.67
2019-05-07T13:00:55.961Z,7.20
2019-05-07T13:03:32.300Z,7.47
2019-05-07T13:06:02.619Z,7.53
2019-05-07T13:08:32.991Z,7.37
2019-05-07T13:11:03.445Z,8.13
2019-05-07T13:13:33.071Z,7.37
2019-05-07T13:16:03.110Z,8.27
2019-05-07T13:18:33.231Z,7.03
2019-05-07T13:21:03.486Z,7.13
2019-05-07T13:23:33.048Z,6.43
2019-05-07T13:26:02.782Z,6.53
2019-05-07T13:28:32.812Z,6.40
2019-05-07T13:31:03.057Z,6.27
2019-05-07T13:33:35.889Z,6.43
2019-05-07T13:36:06.315Z,6.13
2019-05-07T13:38:55.317Z,6.20
2019-05-07T13:41:29.626Z,6.50
2019-05-07T13:44:12.392Z,5.83
2019-05-07T13:46:44.979Z,6.27
2019-05-07T13:49:14.287Z,6.33
2019-05-07T13:51:44.157Z,5.90
2019-05-07T13:54:13.776Z,5.90
2019-05-07T13:56:43.344Z,6.20
2019-05-07T13:59:13.298Z,6.30
2019-05-07T14:01:50.663Z,6.10
2019-05-07T14:04:22.271Z,6.40
2019-05-07T14:06:52.941Z,7.00
2019-05-07T14:09:25.201Z,7.10
2019-05-07T14:11:54.742Z,6.90
2019-05-07T14:14:24.363Z,6.50
2019-05-07T14:16:55.488Z,6.70
2019-05-07T14:19:25.030Z,6.83
2019-05-07T14:21:54.984Z,6.70
2019-05-07T14:24:25.091Z,6.60
2019-05-07T14:26:54.656Z,7.83
2019-05-07T14:29:25.023Z,6.63
2019-05-07T14:31:56.203Z,7.10
2019-05-07T14:34:27.391Z,7.20
2019-05-07T14:37:04.692Z,6.83
2019-05-07T14:39:34.508Z,6.77
2019-05-07T14:42:08.563Z,6.57
2019-05-07T14:44:52.634Z,6.03
2019-05-07T14:47:22.523Z,6.70
2019-05-07T14:49:52.898Z,5.97
2019-05-07T14:52:32.198Z,6.93
2019-05-07T14:54:54.893Z,6.73
2019-05-07T14:57:25.300Z,7.27
2019-05-07T14:59:54.860Z,6.33
2019-05-07T15:02:24.694Z,6.50
2019-05-07T15:04:54.659Z,6.13
2019-05-07T15:07:24.289Z,6.40
2019-05-07T15:09:54.295Z,6.10
2019-05-07T15:12:24.494Z,6.00
2019-05-07T15:14:54.293Z,6.53
2019-05-07T15:17:26.803Z,5.60
2019-05-07T15:19:56.530Z,6.33
2019-05-07T15:22:46.080Z,5.90
2019-05-07T15:25:06.954Z,5.97
2019-05-07T15:27:37.071Z,5.58
2019-05-07T15:30:07.480Z,6.10
2019-05-07T15:32:37.420Z,6.07
2019-05-07T15:35:08.357Z,5.47
2019-05-07T15:37:37.914Z,6.47
2019-05-07T15:40:09.055Z,6.37
2019-05-07T15:42:38.671Z,6.10
2019-05-07T15:45:08.941Z,6.77
2019-05-07T15:47:42.071Z,7.20
2019-05-07T15:50:12.689Z,6.83
2019-05-07T15:52:57.996Z,6.80
2019-05-07T15:55:18.744Z,7.60
2019-05-07T15:57:49.457Z,7.03
2019-05-07T16:00:21.776Z,6.77
2019-05-07T16:03:02.652Z,6.50
2019-05-07T16:05:32.208Z,6.93
2019-05-07T16:08:04.057Z,6.60
2019-05-07T16:10:33.738Z,6.70
2019-05-07T16:13:03.437Z,6.43
2019-05-07T16:15:32.985Z,6.70
2019-05-07T16:18:17.756Z,7.22
2019-05-07T16:20:47.440Z,6.37
2019-05-07T16:23:18.165Z,9.70
2019-05-07T16:25:48.033Z,7.27
2019-05-07T16:28:17.751Z,7.00
2019-05-07T16:30:47.988Z,7.00
2019-05-07T16:33:17.546Z,7.63
2019-05-07T16:35:47.193Z,6.87
2019-05-07T16:38:18.175Z,7.53
2019-05-07T16:40:47.941Z,7.33
2019-05-07T16:43:17.507Z,6.93
2019-05-07T16:45:47.061Z,6.93
2019-05-07T16:48:16.744Z,7.60
2019-05-07T16:50:46.294Z,8.60
2019-05-07T16:53:26.558Z,7.10
2019-05-07T16:55:48.151Z,7.30
2019-05-07T16:58:20.565Z,6.63
2019-05-07T17:00:52.965Z,6.70
2019-05-07T17:03:24.464Z,7.13
2019-05-07T17:05:54.125Z,7.07
2019-05-07T17:08:25.354Z,6.95
2019-05-07T17:10:55.041Z,6.30
2019-05-07T17:13:25.235Z,7.23
2019-05-07T17:15:56.894Z,7.47
2019-05-07T17:18:28.257Z,7.30
2019-05-07T17:21:01.871Z,7.37
2019-05-07T17:23:43.756Z,6.80
2019-05-07T17:26:04.933Z,7.53
2019-05-07T17:28:34.351Z,7.27
2019-05-07T17:31:04.041Z,7.00
2019-05-07T17:33:33.592Z,7.40
2019-05-07T17:36:03.370Z,7.10
2019-05-07T17:38:32.929Z,7.17
2019-05-07T17:41:10.759Z,7.53
2019-05-07T17:43:33.902Z,7.50
2019-05-07T17:46:03.526Z,7.80
2019-05-07T17:48:33.243Z,7.07
2019-05-07T17:51:05.488Z,7.00
2019-05-07T17:53:35.063Z,7.50
2019-05-07T17:56:04.923Z,7.20
2019-05-07T17:58:34.487Z,7.37
2019-05-07T18:01:05.558Z,6.97
2019-05-07T18:03:36.819Z,7.07
2019-05-07T18:06:07.684Z,6.80
2019-05-07T18:08:37.321Z,6.80
2019-05-07T18:11:20.136Z,6.70
2019-05-07T18:13:38.728Z,7.07
2019-05-07T18:16:13.955Z,6.47
2019-05-07T18:18:43.523Z,6.77
2019-05-07T18:21:13.085Z,6.87
2019-05-07T18:23:43.466Z,6.30
2019-05-07T18:26:26.920Z,6.20
2019-05-07T18:28:44.364Z,6.83
2019-05-07T18:31:15.934Z,6.40
2019-05-07T18:33:47.552Z,6.97
2019-05-07T18:36:18.163Z,7.07
2019-05-07T18:38:47.959Z,7.07
2019-05-07T18:41:17.509Z,6.23
2019-05-07T18:43:47.126Z,6.93
2019-05-07T18:46:17.285Z,7.37
2019-05-07T18:48:46.860Z,7.00
2019-05-07T18:51:16.557Z,6.33
2019-05-07T18:53:46.171Z,6.17
2019-05-07T18:56:15.737Z,7.13
2019-05-07T18:58:45.382Z,6.23
2019-05-07T19:01:16.583Z,6.77
2019-05-07T19:03:46.207Z,11.57
2019-05-07T19:06:15.852Z,7.20
2019-05-07T19:08:46.311Z,6.63
2019-05-07T19:11:17.444Z,7.53
2019-05-07T19:13:46.994Z,6.93
2019-05-07T19:16:16.688Z,6.70
2019-05-07T19:18:46.580Z,6.97
2019-05-07T19:21:16.131Z,7.07
2019-05-07T19:23:45.801Z,6.77
2019-05-07T19:26:15.480Z,7.30
2019-05-07T19:28:45.401Z,6.47
2019-05-07T19:31:15.527Z,7.43
2019-05-07T19:33:45.136Z,6.43
2019-05-07T19:36:14.765Z,7.30
2019-05-07T19:38:44.417Z,7.27
2019-05-07T19:41:13.974Z,7.50
2019-05-07T19:43:43.527Z,7.80
2019-05-07T19:46:13.381Z,10.70
2019-05-07T19:48:44.059Z,9.07
2019-05-07T19:51:13.856Z,8.50
2019-05-07T19:53:43.526Z,7.03
2019-05-07T19:56:21.930Z,7.40
2019-05-07T19:58:52.626Z,7.40
2019-05-07T20:01:27.994Z,6.63
2019-05-07T20:03:57.539Z,7.10
2019-05-07T20:06:27.416Z,6.97
2019-05-07T20:09:09.008Z,7.03
2019-05-07T20:11:33.382Z,7.27
2019-05-07T20:14:03.006Z,6.67
2019-05-07T20:16:33.225Z,8.20
2019-05-07T20:19:02.827Z,6.90
2019-05-07T20:21:32.786Z,6.30
2019-05-07T20:24:02.737Z,6.93
2019-05-07T20:26:32.905Z,6.67
2019-05-07T20:29:03.604Z,6.80
2019-05-07T20:31:33.803Z,6.80
2019-05-07T20:34:03.453Z,16.63
2019-05-07T20:36:33.579Z,9.13
2019-05-07T20:39:03.858Z,7.90
2019-05-07T20:41:33.409Z,7.77
2019-05-07T20:44:03.149Z,25.20
2019-05-07T20:46:33.758Z,9.80
2019-05-07T20:49:03.523Z,7.10
2019-05-07T20:51:33.072Z,6.97
2019-05-07T20:54:04.376Z,7.10
2019-05-07T20:56:41.996Z,6.97
2019-05-07T20:59:12.572Z,5.97
2019-05-07T21:01:42.355Z,6.70
2019-05-07T21:04:12.915Z,6.10
2019-05-07T21:06:43.277Z,6.72
2019-05-07T21:09:13.476Z,6.13
2019-05-07T21:11:43.284Z,6.10
2019-05-07T21:14:12.816Z,6.37
2019-05-07T21:16:42.677Z,6.40
2019-05-07T21:19:12.951Z,6.27
2019-05-07T21:21:43.046Z,6.47
2019-05-07T21:24:13.141Z,5.90
2019-05-07T21:26:43.447Z,6.27
2019-05-07T21:29:13.850Z,6.10
2019-05-07T21:31:43.557Z,6.97
2019-05-07T21:34:13.173Z,7.37
2019-05-07T21:36:43.390Z,6.40
2019-05-07T21:39:13.350Z,7.07
2019-05-07T21:41:43.028Z,6.83
2019-05-07T21:44:12.656Z,7.37
2019-05-07T21:46:42.715Z,7.00
2019-05-07T21:49:12.544Z,7.07
2019-05-07T21:51:42.207Z,7.27
2019-05-07T21:54:19.680Z,6.97
2019-05-07T21:57:09.671Z,6.53
2019-05-07T21:59:43.079Z,7.10
2019-05-07T22:02:21.929Z,7.77
2019-05-07T22:04:52.921Z,7.17
2019-05-07T22:07:23.252Z,7.23
2019-05-07T22:09:54.324Z,7.60
2019-05-07T22:12:24.116Z,6.87
2019-05-07T22:14:53.671Z,7.23
2019-05-07T22:17:23.213Z,6.93
2019-05-07T22:19:53.015Z,7.23
2019-05-07T22:22:24.307Z,7.50
2019-05-07T22:24:54.061Z,6.87
2019-05-07T22:27:23.795Z,7.80
2019-05-07T22:29:53.659Z,7.60
2019-05-07T22:32:34.656Z,7.27
2019-05-07T22:35:12.074Z,7.50
2019-05-07T22:37:44.748Z,7.17
2019-05-07T22:40:14.962Z,7.50
2019-05-07T22:42:44.552Z,6.90
2019-05-07T22:45:14.376Z,6.63
2019-05-07T22:47:44.386Z,6.87
2019-05-07T22:50:15.456Z,7.03
2019-05-07T22:52:45.009Z,6.37
2019-05-07T22:55:14.697Z,6.90
2019-05-07T22:57:48.514Z,7.10
2019-05-07T23:00:25.620Z,6.70
2019-05-07T23:02:55.581Z,6.93
2019-05-07T23:05:25.158Z,7.60
2019-05-07T23:07:54.925Z,6.93
2019-05-07T23:10:24.655Z,7.23
2019-05-07T23:12:54.276Z,7.13
2019-05-07T23:15:23.816Z,7.73
2019-05-07T23:17:53.458Z,7.20
2019-05-07T23:20:24.482Z,7.60
2019-05-07T23:22:54.631Z,7.47
2019-05-07T23:25:24.531Z,6.50
2019-05-07T23:27:54.700Z,7.27
2019-05-07T23:30:24.216Z,7.27
2019-05-07T23:32:54.496Z,6.40
2019-05-07T23:35:24.052Z,7.67
2019-05-07T23:37:53.584Z,7.10
2019-05-07T23:40:25.761Z,7.70
2019-05-07T23:43:03.238Z,7.10
2019-05-07T23:45:34.106Z,6.97
2019-05-07T23:48:03.680Z,7.33
2019-05-07T23:50:33.226Z,7.57
2019-05-07T23:53:03.273Z,6.30
2019-05-07T23:55:32.829Z,6.37
2019-05-07T23:58:03.170Z,7.17
